Time;durP1;ratioP1;P1;durP2;ratioP2;P2;SDS_P1;SDS_P2;PMS_P1;PMS_P2;Temp;Humidity;BMP_temperature;BMP_pressure;BME280_temperature;BME280_humidity;BME280_pressure;Samples;Min_cycle;Max_cycle;Signal;HPM_P1;HPM_P2
2023/08/04 00:00:00;;;;;;;;;;;;;;;19.42;44.06;99753.94;4880530;28;98123;-75
2023/08/04 00:02:26;;;;;;;;;;;;;;;19.40;43.94;99758.94;4909636;28;99619;-74
2023/08/04 00:04:54;;;;;;;;;;;;;;;19.38;44.08;99750.31;4905442;28;98129;-74
2023/08/04 00:07:21;;;;;;;;;;;;;;;19.36;44.07;99758.81;4894816;28;98263;-73
2023/08/04 00:09:47;;;;;;;;;;;;;;;19.36;44.07;99767.00;4894838;28;97969;-74
2023/08/04 00:12:14;;;;;;;;;;;;;;;19.36;44.07;99783.41;4888540;28;99592;-74
2023/08/04 00:14:41;;;;;;;;;;;;;;;19.36;43.97;99777.16;4876145;28;98082;-74
2023/08/04 00:17:08;;;;;;;;;;;;;;;19.36;44.00;99782.63;4875457;28;98423;-73
2023/08/04 00:19:38;;;;;;;;;;;;;;;19.36;44.04;99779.88;4907792;28;98201;-74
2023/08/04 00:22:05;;;;;;;;;;;;;;;19.36;43.96;99777.16;4891633;28;98182;-72
2023/08/04 00:24:32;;;;;;;;;;;;;;;19.36;44.32;99779.88;4908251;28;98083;-74
2023/08/04 00:26:59;;;;;;;;;;;;;;;19.36;44.00;99769.75;4912023;28;98211;-73
2023/08/04 00:29:25;;;;;;;;;;;;;;;19.36;44.08;99779.88;4878711;28;98229;-74
2023/08/04 00:31:52;;;;;;;;;;;;;;;19.37;44.15;99793.22;4892615;28;98176;-74
2023/08/04 00:34:20;;;;;;;;;;;;;;;19.36;44.11;99791.59;4893362;28;97826;-74
2023/08/04 00:36:47;;;;;;;;;;;;;;;19.38;44.20;99794.03;4898259;28;99260;-71
2023/08/04 00:39:18;;;;;;;;;;;;;;;19.38;44.20;99788.56;4893159;28;98119;-73
2023/08/04 00:41:47;;;;;;;;;;;;;;;19.37;44.09;99792.41;4894930;28;98182;-75
2023/08/04 00:44:16;;;;;;;;;;;;;;;19.38;44.16;99796.75;4888605;28;98969;-74
2023/08/04 00:46:43;;;;;;;;;;;;;;;19.38;44.14;99797.53;4911895;28;98202;-73
2023/08/04 00:49:10;;;;;;;;;;;;;;;19.38;44.09;99792.06;4906261;28;98072;-74
2023/08/04 00:51:37;;;;;;;;;;;;;;;19.40;43.98;99790.94;4892381;28;98110;-74
2023/08/04 00:54:04;;;;;;;;;;;;;;;19.40;44.05;99786.25;4878409;28;98234;-72
2023/08/04 00:56:31;;;;;;;;;;;;;;;19.40;44.10;99777.28;4891522;28;97867;-73
2023/08/04 00:58:58;;;;;;;;;;;;;;;19.40;44.07;99777.28;4908660;28;113861;-74
2023/08/04 01:01:25;;;;;;;;;;;;;;;19.42;44.14;99775.00;4871689;28;97963;-73
2023/08/04 01:03:52;;;;;;;;;;;;;;;19.42;44.06;99780.47;4887861;28;97959;-74
2023/08/04 01:06:18;;;;;;;;;;;;;;;19.41;44.20;99774.19;4909397;28;98443;-72
2023/08/04 01:09:04;;;;;;;;;;;;;;;19.42;44.19;99770.34;4922499;28;98192;-73
2023/08/04 01:11:33;;;;;;;;;;;;;;;19.42;44.05;99775.00;4895579;28;99734;-73
2023/08/04 01:14:02;;;;;;;;;;;;;;;19.40;44.19;99786.25;4879427;28;98408;-73
2023/08/04 01:16:28;;;;;;;;;;;;;;;19.40;44.12;99793.66;4897394;28;98106;-73
2023/08/04 01:18:59;;;;;;;;;;;;;;;19.40;44.16;99799.91;4895010;28;98352;-73
2023/08/04 01:21:25;;;;;;;;;;;;;;;19.39;43.91;99798.34;4871512;28;98462;-73
2023/08/04 01:23:53;;;;;;;;;;;;;;;19.39;44.19;99803.81;4909699;28;98440;-75
2023/08/04 01:26:20;;;;;;;;;;;;;;;19.38;44.00;99802.22;4874003;28;98098;-73
2023/08/04 01:28:47;;;;;;;;;;;;;;;19.37;44.10;99790.50;4910281;28;98209;-73
2023/08/04 01:31:13;;;;;;;;;;;;;;;19.38;44.10;99799.47;4873963;28;99879;-73
2023/08/04 01:33:44;;;;;;;;;;;;;;;19.37;44.06;99808.78;4889802;28;99822;-74
2023/08/04 01:36:11;;;;;;;;;;;;;;;19.39;44.29;99817.47;4904958;28;98583;-73
2023/08/04 01:38:39;;;;;;;;;;;;;;;19.38;44.20;99824.88;4873715;28;98504;-74
2023/08/04 01:41:07;;;;;;;;;;;;;;;19.38;44.29;99827.59;4893338;28;98276;-75
2023/08/04 01:43:34;;;;;;;;;;;;;;;19.36;44.26;99826.34;4900118;28;99585;-75
2023/08/04 01:46:01;;;;;;;;;;;;;;;19.35;44.36;99833.75;4895917;28;97957;-74
2023/08/04 01:48:27;;;;;;;;;;;;;;;19.35;44.35;99839.19;4891928;28;98129;-75
2023/08/04 01:50:55;;;;;;;;;;;;;;;19.35;44.15;99841.16;4888099;28;99294;-74
2023/08/04 01:53:22;;;;;;;;;;;;;;;19.34;44.23;99850.47;4892608;28;97904;-75
2023/08/04 01:55:49;;;;;;;;;;;;;;;19.34;44.30;99858.69;4893188;28;97914;-73
2023/08/04 01:58:17;;;;;;;;;;;;;;;19.34;44.31;99864.16;4874354;28;99959;-74
2023/08/04 02:00:44;;;;;;;;;;;;;;;19.34;44.22;99864.16;4904544;28;98183;-75
2023/08/04 02:03:10;;;;;;;;;;;;;;;19.34;44.32;99867.66;4893319;28;101432;-73
2023/08/04 02:05:46;;;;;;;;;;;;;;;19.34;44.45;99861.41;4902203;28;98369;-75
2023/08/04 02:08:13;;;;;;;;;;;;;;;19.34;44.24;99864.94;4914054;28;99072;-74
2023/08/04 02:10:48;;;;;;;;;;;;;;;19.36;44.26;99864.59;4890052;28;98255;-74
2023/08/04 02:13:15;;;;;;;;;;;;;;;19.35;44.42;99863.00;4903204;28;98025;-74
2023/08/04 02:15:44;;;;;;;;;;;;;;;19.32;44.31;99853.53;4907720;28;98392;-75
2023/08/04 02:18:10;;;;;;;;;;;;;;;19.31;44.16;99853.88;4872247;28;98306;-73
2023/08/04 02:20:37;;;;;;;;;;;;;;;19.29;44.20;99861.63;4888024;28;98082;-73
2023/08/04 02:23:04;;;;;;;;;;;;;;;19.28;44.36;99866.28;4887089;28;98019;-73
2023/08/04 02:25:31;;;;;;;;;;;;;;;19.28;44.32;99860.03;4907283;28;98214;-75
2023/08/04 02:27:59;;;;;;;;;;;;;;;19.26;44.34;99863.13;4907938;28;98032;-72
2023/08/04 02:30:29;;;;;;;;;;;;;;;19.27;44.33;99861.19;4890150;28;98215;-74
2023/08/04 02:32:56;;;;;;;;;;;;;;;19.26;44.36;99867.78;4893610;28;97962;-75
2023/08/04 02:35:22;;;;;;;;;;;;;;;19.26;44.34;99870.50;4877380;28;98041;-73
2023/08/04 02:37:50;;;;;;;;;;;;;;;19.25;44.45;99855.25;4872613;28;98435;-74
2023/08/04 02:40:17;;;;;;;;;;;;;;;19.25;44.36;99863.44;4905275;28;98294;-73
2023/08/04 02:42:43;;;;;;;;;;;;;;;19.24;44.43;99868.09;4891960;28;98133;-72
2023/08/04 02:45:10;;;;;;;;;;;;;;;19.24;44.35;99873.56;4909682;28;98134;-73
2023/08/04 02:47:40;;;;;;;;;;;;;;;19.25;44.36;99874.38;4871165;28;98124;-74
2023/08/04 02:50:08;;;;;;;;;;;;;;;19.25;44.49;99879.81;4870611;28;98219;-72
2023/08/04 02:52:35;;;;;;;;;;;;;;;19.22;44.29;99875.84;4885748;28;98311;-73
2023/08/04 02:55:02;;;;;;;;;;;;;;;19.21;44.35;99887.09;4907521;28;98620;-73
2023/08/04 02:57:31;;;;;;;;;;;;;;;19.19;44.46;99890.19;4877817;28;97934;-73
2023/08/04 02:59:58;;;;;;;;;;;;;;;19.17;44.62;99895.19;4889745;28;97873;-75
2023/08/04 03:02:27;;;;;;;;;;;;;;;19.17;44.49;99906.09;4909909;28;99725;-74
2023/08/04 03:04:54;;;;;;;;;;;;;;;19.15;44.35;99902.94;4891313;28;98153;-74
2023/08/04 03:07:20;;;;;;;;;;;;;;;19.14;44.58;99898.59;4872385;28;98091;-73
2023/08/04 03:09:47;;;;;;;;;;;;;;;19.13;44.42;99905.19;4890111;28;99422;-76
2023/08/04 03:12:16;;;;;;;;;;;;;;;19.13;44.41;99913.38;4884215;28;98150;-74
2023/08/04 03:14:42;;;;;;;;;;;;;;;19.12;44.45;99911.78;4890617;28;97995;-73
2023/08/04 03:17:09;;;;;;;;;;;;;;;19.11;44.44;99918.41;4866075;28;99961;-75
2023/08/04 03:19:36;;;;;;;;;;;;;;;19.09;44.46;99910.53;4901947;28;98327;-74
2023/08/04 03:22:03;;;;;;;;;;;;;;;19.10;44.41;99909.41;4875575;28;97959;-73
2023/08/04 03:24:31;;;;;;;;;;;;;;;19.09;44.52;99901.53;4905318;28;98387;-73
2023/08/04 03:26:57;;;;;;;;;;;;;;;19.09;44.40;99899.59;4870697;28;97951;-72
2023/08/04 03:29:24;;;;;;;;;;;;;;;19.09;44.36;99904.25;4865984;28;98183;-75
2023/08/04 03:31:50;;;;;;;;;;;;;;;19.08;44.54;99908.94;4887674;28;98072;-73
2023/08/04 03:34:19;;;;;;;;;;;;;;;19.08;44.41;99916.34;4908503;28;99538;-75
2023/08/04 03:36:46;;;;;;;;;;;;;;;19.06;44.56;99913.13;4890766;28;98260;-75
2023/08/04 03:39:13;;;;;;;;;;;;;;;19.05;44.53;99920.53;4909910;28;98620;-75
2023/08/04 03:41:42;;;;;;;;;;;;;;;19.04;44.69;99924.41;4910246;28;97942;-74
2023/08/04 03:44:08;;;;;;;;;;;;;;;19.03;44.48;99925.53;4891530;28;97860;-72
2023/08/04 03:46:35;;;;;;;;;;;;;;;19.01;44.59;99930.53;4889928;28;97923;-73
2023/08/04 03:49:05;;;;;;;;;;;;;;;19.00;44.54;99937.13;4909871;28;98005;-75
2023/08/04 03:51:33;;;;;;;;;;;;;;;19.01;44.64;99935.19;4895575;28;98394;-74
2023/08/04 03:54:00;;;;;;;;;;;;;;;19.01;44.45;99933.25;4909157;28;98053;-73
2023/08/04 03:56:27;;;;;;;;;;;;;;;19.02;44.43;99934.88;4907351;28;100902;-72
2023/08/04 03:58:53;;;;;;;;;;;;;;;19.03;44.58;99943.88;4878788;28;98144;-73
2023/08/04 04:01:20;;;;;;;;;;;;;;;19.02;44.52;99944.97;4894142;28;98676;-74
2023/08/04 04:03:48;;;;;;;;;;;;;;;19.01;44.55;99943.38;4896553;28;98901;-75
2023/08/04 04:06:16;;;;;;;;;;;;;;;18.98;44.63;99947.59;4910847;28;98060;-73
2023/08/04 04:08:42;;;;;;;;;;;;;;;18.95;44.69;99958.41;4892999;28;98103;-73
2023/08/04 04:11:10;;;;;;;;;;;;;;;18.92;44.71;99964.53;4879331;28;98185;-75
2023/08/04 04:13:36;;;;;;;;;;;;;;;18.89;44.53;99963.25;4908329;28;98137;-73
2023/08/04 04:16:03;;;;;;;;;;;;;;;18.88;44.70;99965.19;4878532;28;101687;-75
2023/08/04 04:18:33;;;;;;;;;;;;;;;18.89;44.58;99972.25;4895109;28;98033;-75
2023/08/04 04:21:01;;;;;;;;;;;;;;;18.91;44.58;99971.13;4907955;28;98122;-74
2023/08/04 04:23:28;;;;;;;;;;;;;;;18.89;44.62;99974.97;4879022;28;98224;-75
2023/08/04 04:25:54;;;;;;;;;;;;;;;18.89;44.50;99974.19;4893272;28;98349;-74
2023/08/04 04:28:22;;;;;;;;;;;;;;;18.87;44.50;99976.47;4888185;28;98023;-74
2023/08/04 04:30:50;;;;;;;;;;;;;;;18.85;44.56;99984.16;4892152;28;98109;-75
2023/08/04 04:33:16;;;;;;;;;;;;;;;18.81;44.68;99980.50;4892364;28;98879;-72
2023/08/04 04:35:49;;;;;;;;;;;;;;;18.78;45.00;99978.44;4893764;28;99365;-74
2023/08/04 04:38:16;;;;;;;;;;;;;;;18.71;44.78;99976.25;4891591;28;98008;-74
2023/08/04 04:40:42;;;;;;;;;;;;;;;18.68;44.86;99985.09;4876291;28;98274;-74
2023/08/04 04:43:09;;;;;;;;;;;;;;;18.65;44.92;99986.53;4890644;28;98265;-75
2023/08/04 04:45:35;;;;;;;;;;;;;;;18.62;44.86;99989.13;4906287;28;98234;-75
2023/08/04 04:48:04;;;;;;;;;;;;;;;18.61;44.76;99990.28;4874428;28;98492;-74
2023/08/04 04:50:31;;;;;;;;;;;;;;;18.62;44.82;99997.31;4902955;28;98230;-74
2023/08/04 04:52:58;;;;;;;;;;;;;;;18.62;44.89;99991.84;4906137;28;100289;-75
2023/08/04 04:55:24;;;;;;;;;;;;;;;18.64;44.94;99995.88;4925134;28;98079;-75
2023/08/04 04:57:51;;;;;;;;;;;;;;;18.70;44.75;99992.94;4905158;28;98292;-75
2023/08/04 05:00:18;;;;;;;;;;;;;;;18.75;44.74;99992.78;4892946;28;98556;-74
2023/08/04 05:02:44;;;;;;;;;;;;;;;18.86;44.50;99993.94;4875496;28;98309;-74
2023/08/04 05:05:11;;;;;;;;;;;;;;;18.97;44.27;99994.34;4898937;28;98416;-75
2023/08/04 05:07:38;;;;;;;;;;;;;;;19.09;44.46;99994.41;4871259;28;98879;-75
2023/08/04 05:10:05;;;;;;;;;;;;;;;19.29;44.20;100000.94;4870184;28;98136;-74
2023/08/04 05:12:31;;;;;;;;;;;;;;;19.60;43.95;100001.25;4889092;28;98169;-74
2023/08/04 05:14:58;;;;;;;;;;;;;;;19.68;43.92;100007.81;4906780;28;98737;-75
2023/08/04 05:17:25;;;;;;;;;;;;;;;19.75;43.99;100008.03;4903053;28;98193;-73
2023/08/04 05:19:51;;;;;;;;;;;;;;;19.80;44.23;100016.00;4888598;28;98683;-74
2023/08/04 05:22:18;;;;;;;;;;;;;;;19.96;43.95;100026.28;4873305;28;98560;-75
2023/08/04 05:24:45;;;;;;;;;;;;;;;20.12;43.59;100019.00;4873706;28;98404;-75
2023/08/04 05:27:13;;;;;;;;;;;;;;;20.25;43.79;100012.41;4869603;28;99793;-75
2023/08/04 05:29:40;;;;;;;;;;;;;;;20.45;43.42;100007.16;4869462;28;98106;-73
2023/08/04 05:32:07;;;;;;;;;;;;;;;20.66;43.42;100007.00;4870907;28;98034;-74
2023/08/04 05:34:38;;;;;;;;;;;;;;;20.64;43.56;100009.31;4892409;28;98275;-75
2023/08/04 05:37:05;;;;;;;;;;;;;;;20.70;43.59;100011.44;4904450;28;98244;-74
2023/08/04 05:39:33;;;;;;;;;;;;;;;20.73;43.62;100015.44;4905980;28;98393;-73
2023/08/04 05:41:59;;;;;;;;;;;;;;;20.70;43.67;100030.59;4890011;28;97929;-74
2023/08/04 05:44:26;;;;;;;;;;;;;;;20.53;43.93;100037.16;4883875;28;98377;-73
2023/08/04 05:46:53;;;;;;;;;;;;;;;20.48;44.06;100044.78;4874093;28;98687;-74
2023/08/04 05:49:20;;;;;;;;;;;;;;;20.47;44.04;100049.44;4908074;28;98112;-74
2023/08/04 05:51:49;;;;;;;;;;;;;;;20.50;43.99;100045.25;4867208;28;98298;-75
2023/08/04 05:54:16;;;;;;;;;;;;;;;20.61;43.97;100054.59;4873877;28;98959;-75
2023/08/04 05:56:43;;;;;;;;;;;;;;;20.65;43.96;100060.19;4885444;28;100224;-75
2023/08/04 05:59:09;;;;;;;;;;;;;;;20.70;43.93;100057.19;4907281;28;98110;-75
2023/08/04 06:01:36;;;;;;;;;;;;;;;20.78;43.86;100059.81;4916083;28;98118;-75
2023/08/04 06:04:03;;;;;;;;;;;;;;;20.83;43.87;100062.31;4892026;28;99749;-75
2023/08/04 06:06:29;;;;;;;;;;;;;;;21.25;43.37;100058.41;4869291;28;98195;-75
2023/08/04 06:08:56;;;;;;;;;;;;;;;21.65;42.99;100066.59;4883220;28;98562;-75
2023/08/04 06:11:24;;;;;;;;;;;;;;;22.09;42.70;100060.28;4874532;28;99539;-75
2023/08/04 06:13:52;;;;;;;;;;;;;;;22.25;42.75;100069.34;4905939;28;98322;-75
2023/08/04 06:16:19;;;;;;;;;;;;;;;21.98;43.19;100073.72;4886198;28;99193;-74
2023/08/04 06:18:46;;;;;;;;;;;;;;;21.71;43.62;100072.63;4908583;28;97962;-74
2023/08/04 06:21:12;;;;;;;;;;;;;;;21.46;44.31;100078.25;4881756;28;98680;-74
2023/08/04 06:23:45;;;;;;;;;;;;;;;21.19;44.44;100077.06;4904094;28;98119;-75
2023/08/04 06:26:12;;;;;;;;;;;;;;;20.96;44.58;100081.47;4906522;28;98309;-75
2023/08/04 06:28:42;;;;;;;;;;;;;;;20.94;44.77;100086.47;4886632;28;98231;-74
2023/08/04 06:31:08;;;;;;;;;;;;;;;20.94;44.48;100090.00;4891143;28;98145;-74
2023/08/04 06:33:38;;;;;;;;;;;;;;;21.02;44.45;100089.06;4874068;28;98100;-75
2023/08/04 06:36:05;;;;;;;;;;;;;;;20.95;44.38;100093.56;4893071;28;98022;-74
2023/08/04 06:38:31;;;;;;;;;;;;;;;20.77;44.55;100099.28;4905943;28;98123;-72
2023/08/04 06:40:59;;;;;;;;;;;;;;;20.72;44.75;100102.28;4895695;28;98102;-72
2023/08/04 06:43:26;;;;;;;;;;;;;;;20.68;44.74;100109.59;4910644;28;98130;-75
2023/08/04 06:45:53;;;;;;;;;;;;;;;20.67;44.73;100107.16;4874436;28;97933;-72
2023/08/04 06:48:19;;;;;;;;;;;;;;;20.65;44.73;100114.94;4868701;28;98072;-72
2023/08/04 06:50:45;;;;;;;;;;;;;;;20.67;44.70;100120.84;4888373;28;99068;-71
2023/08/04 06:53:12;;;;;;;;;;;;;;;20.75;44.37;100120.75;4874500;28;98227;-75
2023/08/04 06:55:38;;;;;;;;;;;;;;;20.87;44.40;100128.16;4890759;28;98274;-71
2023/08/04 06:58:05;;;;;;;;;;;;;;;20.92;44.53;100133.41;4910054;28;98441;-72
2023/08/04 07:00:33;;;;;;;;;;;;;;;21.06;44.33;100133.03;4869447;28;98558;-74
2023/08/04 07:03:00;;;;;;;;;;;;;;;21.26;44.17;100136.75;4871967;28;98271;-75
2023/08/04 07:05:27;;;;;;;;;;;;;;;21.43;44.12;100143.94;4889181;28;98330;-71
2023/08/04 07:07:54;;;;;;;;;;;;;;;21.77;43.94;100142.53;4890989;28;99017;-75
2023/08/04 07:10:21;;;;;;;;;;;;;;;21.94;43.85;100134.00;4890973;28;98288;-71
2023/08/04 07:12:47;;;;;;;;;;;;;;;21.96;43.94;100136.38;4906160;28;98659;-72
2023/08/04 07:15:13;;;;;;;;;;;;;;;21.96;44.10;100130.88;4904004;28;98701;-74
2023/08/04 07:17:40;;;;;;;;;;;;;;;21.89;44.24;100150.72;4898643;28;98445;-75
2023/08/04 07:20:07;;;;;;;;;;;;;;;21.94;44.23;100144.97;4902602;28;98088;-75
2023/08/04 07:22:33;;;;;;;;;;;;;;;22.12;44.01;100153.66;4908846;28;97953;-72
2023/08/04 07:24:59;;;;;;;;;;;;;;;22.13;44.11;100154.47;4889881;28;98286;-72
2023/08/04 07:27:25;;;;;;;;;;;;;;;22.09;44.27;100159.06;4894505;28;98384;-71
2023/08/04 07:29:52;;;;;;;;;;;;;;;22.00;44.34;100164.69;4895514;28;98071;-75
2023/08/04 07:32:18;;;;;;;;;;;;;;;21.91;44.45;100150.34;4893653;28;98304;-72
2023/08/04 07:34:45;;;;;;;;;;;;;;;21.80;44.52;100156.34;4880208;28;99762;-75
2023/08/04 07:37:13;;;;;;;;;;;;;;;21.72;44.75;100160.03;4897878;28;99297;-75
2023/08/04 07:39:40;;;;;;;;;;;;;;;21.68;44.74;100161.88;4875297;28;98271;-72
2023/08/04 07:42:06;;;;;;;;;;;;;;;21.61;44.70;100163.63;4892268;28;98030;-72
2023/08/04 07:44:34;;;;;;;;;;;;;;;21.56;44.85;100165.47;4905194;28;97977;-75
2023/08/04 07:47:01;;;;;;;;;;;;;;;21.54;44.69;100170.50;4866809;28;98041;-71
2023/08/04 07:49:27;;;;;;;;;;;;;;;21.53;44.71;100177.13;4897238;28;98256;-72
2023/08/04 07:51:55;;;;;;;;;;;;;;;21.58;44.60;100178.84;4892799;28;98035;-72
2023/08/04 07:54:21;;;;;;;;;;;;;;;21.57;44.83;100174.47;4903628;28;98170;-75
2023/08/04 07:56:48;;;;;;;;;;;;;;;21.51;44.74;100184.13;4868191;28;98369;-75
2023/08/04 07:59:15;;;;;;;;;;;;;;;21.43;44.78;100193.28;4869210;28;100398;-71
2023/08/04 08:01:41;;;;;;;;;;;;;;;21.37;44.95;100191.91;4895807;28;98132;-72
2023/08/04 08:04:08;;;;;;;;;;;;;;;21.32;44.95;100195.66;4892439;28;98342;-71
2023/08/04 08:06:36;;;;;;;;;;;;;;;21.32;44.87;100181.97;4908652;28;98223;-71
2023/08/04 08:09:02;;;;;;;;;;;;;;;21.47;44.70;100185.94;4904100;28;98151;-71
2023/08/04 08:11:29;;;;;;;;;;;;;;;22.00;43.99;100172.94;4887858;28;98595;-71
2023/08/04 08:13:58;;;;;;;;;;;;;;;24.33;41.36;100170.69;4883467;28;98077;-71
2023/08/04 08:16:24;;;;;;;;;;;;;;;26.15;39.65;100174.03;4910984;28;98361;-72
2023/08/04 08:18:51;;;;;;;;;;;;;;;26.93;39.48;100181.41;4911835;28;99366;-79
2023/08/04 08:21:18;;;;;;;;;;;;;;;28.06;39.09;100180.38;4907902;28;98542;-79
2023/08/04 08:23:44;;;;;;;;;;;;;;;27.52;40.08;100189.66;4880547;28;98185;-79
2023/08/04 08:26:11;;;;;;;;;;;;;;;26.60;41.27;100183.13;4907349;28;99432;-72
2023/08/04 08:28:38;;;;;;;;;;;;;;;25.83;42.37;100192.22;4907812;28;98227;-80
2023/08/04 08:31:06;;;;;;;;;;;;;;;25.16;43.09;100188.19;4911399;28;100066;-80
2023/08/04 08:33:32;;;;;;;;;;;;;;;24.67;43.65;100202.75;4894403;28;98087;-72
2023/08/04 08:36:00;;;;;;;;;;;;;;;24.34;43.98;100206.13;4906256;28;97985;-72
2023/08/04 08:38:27;;;;;;;;;;;;;;;24.13;43.98;100205.72;4894029;28;98673;-73
2023/08/04 08:40:53;;;;;;;;;;;;;;;23.92;43.80;100212.41;4907196;28;98523;-72
2023/08/04 08:43:20;;;;;;;;;;;;;;;23.70;44.10;100216.69;4891081;28;97897;-72
2023/08/04 08:45:47;;;;;;;;;;;;;;;23.53;44.06;100217.88;4910745;28;98930;-80
2023/08/04 08:48:16;;;;;;;;;;;;;;;23.33;44.20;100218.22;4889150;28;98461;-80
2023/08/04 08:50:45;;;;;;;;;;;;;;;23.13;44.61;100233.88;4913143;28;98312;-80
2023/08/04 08:53:16;;;;;;;;;;;;;;;22.92;44.58;100229.47;4895943;28;98093;-71
2023/08/04 08:55:43;;;;;;;;;;;;;;;22.81;44.62;100235.81;4904359;28;98351;-72
2023/08/04 08:58:09;;;;;;;;;;;;;;;22.79;44.62;100230.66;4920918;28;98007;-73
2023/08/04 09:00:36;;;;;;;;;;;;;;;22.81;44.36;100222.88;4873751;28;99342;-73
2023/08/04 09:03:06;;;;;;;;;;;;;;;22.81;44.35;100225.63;4908094;28;98254;-79
2023/08/04 09:05:33;;;;;;;;;;;;;;;22.78;43.99;100240.88;4893777;28;98520;-73
2023/08/04 09:08:03;;;;;;;;;;;;;;;22.73;44.15;100240.34;4907641;28;97992;-81
2023/08/04 09:10:33;;;;;;;;;;;;;;;22.92;43.98;100237.72;4883406;28;97801;-73
2023/08/04 09:13:00;;;;;;;;;;;;;;;23.38;43.30;100235.22;4889997;28;97979;-74
2023/08/04 09:15:54;;;;;;;;;;;;;;;23.51;43.17;100239.47;4894006;28;98454;-81
2023/08/04 09:18:29;;;;;;;;;;;;;;;23.66;43.14;100237.06;4892693;28;99749;-74
2023/08/04 09:21:10;;;;;;;;;;;;;;;23.88;42.97;100230.00;4902820;28;100244;-74
2023/08/04 09:24:00;;;;;;;;;;;;;;;24.09;42.96;100211.19;4923630;28;98503;-81
2023/08/04 09:26:42;;;;;;;;;;;;;;;24.51;42.48;100212.31;4884769;28;98242;-81
2023/08/04 09:29:10;;;;;;;;;;;;;;;25.85;41.21;100209.97;4902007;28;98055;-73
2023/08/04 09:31:38;;;;;;;;;;;;;;;27.68;39.34;100217.00;4894984;28;98411;-74
2023/08/04 09:34:09;;;;;;;;;;;;;;;29.13;38.47;100210.13;4875786;28;100536;-81
2023/08/04 09:36:43;;;;;;;;;;;;;;;30.69;37.61;100223.63;4871873;28;99004;-73
2023/08/04 09:39:10;;;;;;;;;;;;;;;31.37;37.50;100239.75;4904933;28;98000;-73
2023/08/04 09:41:45;;;;;;;;;;;;;;;34.04;35.05;100226.25;4905802;28;98215;-81
2023/08/04 09:44:12;;;;;;;;;;;;;;;36.32;33.96;100240.97;4888896;28;98493;-74
2023/08/04 09:46:54;;;;;;;;;;;;;;;36.47;34.39;100235.69;4895975;28;97859;-74
2023/08/04 09:49:25;;;;;;;;;;;;;;;38.15;33.12;100232.50;4892864;28;98135;-81
2023/08/04 09:51:55;;;;;;;;;;;;;;;36.47;35.62;100230.91;4926907;28;98224;-74
2023/08/04 09:54:22;;;;;;;;;;;;;;;39.07;33.79;100235.56;4890259;28;97983;-82
2023/08/04 09:56:49;;;;;;;;;;;;;;;39.42;33.93;100221.94;4892776;28;97955;-73
2023/08/04 09:59:16;;;;;;;;;;;;;;;40.12;33.73;100227.56;4874435;28;99623;-78
2023/08/04 10:01:42;;;;;;;;;;;;;;;40.35;33.89;100223.22;4888529;28;100592;-74
2023/08/04 10:04:10;;;;;;;;;;;;;;;37.52;37.11;100215.59;4874167;28;98097;-81
2023/08/04 10:06:40;;;;;;;;;;;;;;;35.22;39.01;100209.34;4916625;28;98838;-73
2023/08/04 10:09:09;;;;;;;;;;;;;;;33.72;40.48;100202.56;4876519;28;98260;-82
2023/08/04 10:11:37;;;;;;;;;;;;;;;32.40;41.87;100212.53;4887931;28;98427;-81
2023/08/04 10:14:05;;;;;;;;;;;;;;;31.16;42.66;100219.22;4871878;28;98153;-82
2023/08/04 10:16:37;;;;;;;;;;;;;;;30.16;43.26;100219.25;4902830;28;98097;-81
2023/08/04 10:19:05;;;;;;;;;;;;;;;29.38;43.61;100223.13;4883871;28;98366;-73
2023/08/04 10:21:41;;;;;;;;;;;;;;;28.78;44.08;100222.00;4906151;28;98133;-81
2023/08/04 10:24:14;;;;;;;;;;;;;;;28.30;43.81;100223.16;4893250;28;99228;-74
2023/08/04 10:26:48;;;;;;;;;;;;;;;28.05;43.59;100219.50;4879698;28;100239;-81
2023/08/04 10:29:16;;;;;;;;;;;;;;;27.93;43.53;100219.88;4887337;28;97957;-81
2023/08/04 10:31:51;;;;;;;;;;;;;;;28.02;43.17;100209.22;4900442;28;98200;-81
2023/08/04 10:34:35;;;;;;;;;;;;;;;28.71;42.01;100208.16;4882252;28;98429;-81
2023/08/04 10:37:11;;;;;;;;;;;;;;;32.05;38.41;100211.84;4903380;28;98119;-80
2023/08/04 10:39:45;;;;;;;;;;;;;;;34.64;35.91;100218.44;4899564;28;98111;-72
2023/08/04 10:42:23;;;;;;;;;;;;;;;33.96;37.55;100216.41;4873789;28;98351;-73
2023/08/04 10:45:10;;;;;;;;;;;;;;;34.07;37.73;100213.41;4903569;28;98892;-81
2023/08/04 10:47:47;;;;;;;;;;;;;;;34.81;37.70;100218.41;4898210;28;98055;-73
2023/08/04 10:50:14;;;;;;;;;;;;;;;36.71;35.79;100224.88;4896418;28;98302;-73
2023/08/04 10:52:41;;;;;;;;;;;;;;;36.95;35.58;100228.13;4882812;28;101682;-73
2023/08/04 10:55:12;;;;;;;;;;;;;;;34.74;38.82;100218.59;4884618;28;98595;-81
2023/08/04 10:57:41;;;;;;;;;;;;;;;33.32;40.07;100220.50;4886842;28;98297;-73
2023/08/04 11:00:10;;;;;;;;;;;;;;;32.68;40.46;100214.84;4859116;28;100143;-80
2023/08/04 11:02:37;;;;;;;;;;;;;;;35.17;37.54;100218.28;4873519;28;98953;-80
2023/08/04 11:05:05;;;;;;;;;;;;;;;33.21;39.68;100220.75;4898427;28;99002;-74
2023/08/04 11:07:32;;;;;;;;;;;;;;;33.01;39.73;100223.47;4702122;28;5716468;-80
2023/08/04 11:10:07;;;;;;;;;;;;;;;32.17;41.12;100214.03;4888967;28;98219;-72
2023/08/04 11:12:33;;;;;;;;;;;;;;;32.22;40.45;100215.56;4890750;28;101798;-80
2023/08/04 11:15:00;;;;;;;;;;;;;;;31.53;41.43;100204.53;4901464;28;99618;-73
2023/08/04 11:17:28;;;;;;;;;;;;;;;31.86;40.94;100201.34;4905824;28;99264;-80
2023/08/04 11:19:54;;;;;;;;;;;;;;;32.43;39.91;100206.91;4894311;28;98126;-74
2023/08/04 11:22:25;;;;;;;;;;;;;;;32.62;39.71;100204.59;4898446;28;98406;-73
2023/08/04 11:24:57;;;;;;;;;;;;;;;32.15;40.38;100204.53;4909671;28;98327;-79
2023/08/04 11:27:24;;;;;;;;;;;;;;;31.64;40.92;100209.19;4912449;28;98626;-81
2023/08/04 11:29:56;;;;;;;;;;;;;;;31.06;41.36;100197.88;4885575;28;98229;-81
2023/08/04 11:32:24;;;;;;;;;;;;;;;30.51;41.84;100205.09;4870174;28;98318;-74
2023/08/04 11:34:55;;;;;;;;;;;;;;;30.05;42.07;100205.41;4874258;28;97847;-75
2023/08/04 11:37:22;;;;;;;;;;;;;;;29.75;42.08;100205.94;4888666;28;98388;-81
2023/08/04 11:39:49;;;;;;;;;;;;;;;29.41;42.64;100214.78;4918370;28;97996;-74
2023/08/04 11:42:17;;;;;;;;;;;;;;;29.52;42.22;100217.53;4910518;28;98276;-80
2023/08/04 11:44:44;;;;;;;;;;;;;;;29.41;42.03;100223.13;4887884;28;98660;-74
2023/08/04 11:47:12;;;;;;;;;;;;;;;29.19;42.41;100227.13;4898736;28;99406;-73
2023/08/04 11:49:40;;;;;;;;;;;;;;;29.10;42.30;100228.34;4886790;28;101586;-81
2023/08/04 11:52:10;;;;;;;;;;;;;;;28.86;42.37;100234.69;4888753;28;98565;-73
2023/08/04 11:54:57;;;;;;;;;;;;;;;28.57;42.37;100240.22;4876206;28;98060;-73
2023/08/04 11:57:25;;;;;;;;;;;;;;;28.32;42.54;100254.00;4894391;28;101006;-73
2023/08/04 11:59:55;;;;;;;;;;;;;;;28.26;42.40;100249.25;4890291;28;98624;-73
2023/08/04 12:02:25;;;;;;;;;;;;;;;28.53;41.93;100247.75;4876708;28;99294;-82
2023/08/04 12:05:09;;;;;;;;;;;;;;;28.35;42.41;100235.81;4888369;28;98230;-73
2023/08/04 12:07:36;;;;;;;;;;;;;;;28.40;42.38;100226.34;4876224;28;98754;-81
2023/08/04 12:10:05;;;;;;;;;;;;;;;28.34;42.00;100225.94;4895491;28;101860;-72
2023/08/04 12:12:42;;;;;;;;;;;;;;;28.33;42.33;100232.63;4903777;28;98161;-81
2023/08/04 12:15:11;;;;;;;;;;;;;;;28.46;41.72;100233.09;4889788;28;98354;-81
2023/08/04 12:17:39;;;;;;;;;;;;;;;28.98;41.53;100237.06;4896282;28;98105;-81
2023/08/04 12:20:12;;;;;;;;;;;;;;;29.97;40.26;100235.19;4873817;28;98268;-73
2023/08/04 12:22:43;;;;;;;;;;;;;;;29.80;40.69;100250.75;4906042;28;98277;-82
2023/08/04 12:25:11;;;;;;;;;;;;;;;29.78;40.95;100255.13;4891798;28;98159;-73
2023/08/04 12:27:38;;;;;;;;;;;;;;;29.75;40.80;100267.84;4907219;28;98179;-73
2023/08/04 12:30:05;;;;;;;;;;;;;;;29.59;41.19;100281.38;4891352;28;98084;-82
2023/08/04 12:32:34;;;;;;;;;;;;;;;29.43;41.07;100290.09;4870786;28;98276;-74
2023/08/04 12:35:02;;;;;;;;;;;;;;;29.28;41.43;100277.47;4916288;28;98108;-81
2023/08/04 12:37:29;;;;;;;;;;;;;;;29.19;41.54;100277.06;4889547;28;98486;-73
2023/08/04 12:39:55;;;;;;;;;;;;;;;29.10;41.48;100277.47;4911048;28;98185;-73
2023/08/04 12:42:22;;;;;;;;;;;;;;;29.04;41.75;100277.09;4890916;28;98650;-73
2023/08/04 12:44:50;;;;;;;;;;;;;;;29.01;41.38;100264.03;4926121;28;98725;-81